sensor_id;sensor_type;location;lat;lon;timestamp;pressure;altitude;pressure_sealevel;temperature;humidity
67052;BME280;53957;47.222;18.670;2023-04-23T01:31:49;99958.22;;;6.25;100.00
67052;BME280;53957;47.222;18.670;2023-04-23T01:34:53;99951.78;;;6.05;100.00
67052;BME280;53957;47.222;18.670;2023-04-23T01:37:58;99945.75;;;6.15;100.00
67052;BME280;53957;47.222;18.670;2023-04-23T01:41:03;99952.25;;;5.97;100.00
67052;BME280;53957;47.222;18.670;2023-04-23T01:44:05;99949.47;;;6.24;100.00
67052;BME280;53957;47.222;18.670;2023-04-23T01:47:09;99945.00;;;5.77;100.00
67052;BME280;53957;47.222;18.670;2023-04-23T01:50:13;99946.56;;;5.73;100.00
67052;BME280;53957;47.222;18.670;2023-04-23T01:53:17;99943.16;;;5.77;100.00
67052;BME280;53957;47.222;18.670;2023-04-23T01:56:24;99938.09;;;5.71;100.00
67052;BME280;53957;47.222;18.670;2023-04-23T01:59:28;99943.38;;;5.66;100.00
67052;BME280;53957;47.222;18.670;2023-04-23T02:02:31;99939.13;;;5.64;100.00
67052;BME280;53957;47.222;18.670;2023-04-23T02:05:35;99944.59;;;5.53;100.00
67052;BME280;53957;47.222;18.670;2023-04-23T02:08:38;99939.13;;;5.64;100.00
67052;BME280;53957;47.222;18.670;2023-04-23T02:11:41;99935.03;;;5.41;100.00
67052;BME280;53957;47.222;18.670;2023-04-23T02:14:44;99941.16;;;5.47;100.00
67052;BME280;53957;47.222;18.670;2023-04-23T02:17:47;99938.75;;;5.51;100.00
67052;BME280;53957;47.222;18.670;2023-04-23T02:20:53;99929.00;;;5.51;100.00
67052;BME280;53957;47.222;18.670;2023-04-23T02:23:55;99935.66;;;5.59;100.00
67052;BME280;53957;47.222;18.670;2023-04-23T02:26:59;99926.00;;;5.37;100.00
67052;BME280;53957;47.222;18.670;2023-04-23T02:30:02;99921.06;;;5.13;100.00
67052;BME280;53957;47.222;18.670;2023-04-23T02:33:06;99926.53;;;5.02;100.00
67052;BME280;53957;47.222;18.670;2023-04-23T02:36:09;99924.81;;;5.18;100.00
67052;BME280;53957;47.222;18.670;2023-04-23T02:39:15;99924.63;;;5.29;100.00
67052;BME280;53957;47.222;18.670;2023-04-23T02:42:17;99922.66;;;5.14;100.00
67052;BME280;53957;47.222;18.670;2023-04-23T02:45:20;99929.16;;;5.34;100.00
67052;BME280;53957;47.222;18.670;2023-04-23T02:48:24;99922.03;;;5.02;100.00
67052;BME280;53957;47.222;18.670;2023-04-23T02:51:29;99917.63;;;5.13;100.00
67052;BME280;53957;47.222;18.670;2023-04-23T02:54:32;99924.22;;;5.10;100.00
67052;BME280;53957;47.222;18.670;2023-04-23T02:57:36;99922.38;;;5.11;100.00
67052;BME280;53957;47.222;18.670;2023-04-23T03:00:39;99911.69;;;4.95;100.00
67052;BME280;53957;47.222;18.670;2023-04-23T03:03:42;99922.16;;;4.85;100.00
67052;BME280;53957;47.222;18.670;2023-04-23T03:06:45;99916.84;;;5.12;100.00
67052;BME280;53957;47.222;18.670;2023-04-23T03:09:48;99920.53;;;5.11;100.00
67052;BME280;53957;47.222;18.670;2023-04-23T03:12:51;99911.09;;;4.88;100.00
67052;BME280;53957;47.222;18.670;2023-04-23T03:15:55;99909.09;;;4.68;100.00
67052;BME280;53957;47.222;18.670;2023-04-23T03:18:58;99909.41;;;4.72;100.00
67052;BME280;53957;47.222;18.670;2023-04-23T03:22:01;99908.28;;;4.67;100.00
67052;BME280;53957;47.222;18.670;2023-04-23T03:25:07;99913.38;;;4.74;100.00
67052;BME280;53957;47.222;18.670;2023-04-23T03:28:10;99912.69;;;4.89;100.00
67052;BME280;53957;47.222;18.670;2023-04-23T03:31:13;99916.16;;;4.95;100.00
67052;BME280;53957;47.222;18.670;2023-04-23T03:34:16;99920.78;;;4.77;100.00
67052;BME280;53957;47.222;18.670;2023-04-23T03:37:19;99929.22;;;4.74;100.00
67052;BME280;53957;47.222;18.670;2023-04-23T03:40:22;99930.63;;;4.55;100.00
67052;BME280;53957;47.222;18.670;2023-04-23T03:43:26;99926.44;;;4.59;100.00
67052;BME280;53957;47.222;18.670;2023-04-23T03:46:32;99927.44;;;4.53;100.00
67052;BME280;53957;47.222;18.670;2023-04-23T03:49:35;99918.06;;;4.40;100.00
67052;BME280;53957;47.222;18.670;2023-04-23T03:52:38;99918.00;;;4.34;100.00
67052;BME280;53957;47.222;18.670;2023-04-23T03:55:44;99917.75;;;4.36;100.00
67052;BME280;53957;47.222;18.670;2023-04-23T03:58:47;99921.59;;;4.50;100.00
67052;BME280;53957;47.222;18.670;2023-04-23T04:01:50;99919.03;;;4.56;100.00
67052;BME280;53957;47.222;18.670;2023-04-23T04:04:53;99914.66;;;4.44;100.00
67052;BME280;53957;47.222;18.670;2023-04-23T04:07:58;99920.09;;;4.60;100.00
67052;BME280;53957;47.222;18.670;2023-04-23T04:11:02;99920.44;;;4.68;100.00
67052;BME280;53957;47.222;18.670;2023-04-23T04:14:04;99924.28;;;4.83;100.00
67052;BME280;53957;47.222;18.670;2023-04-23T04:17:07;99931.19;;;5.22;100.00
67052;BME280;53957;47.222;18.670;2023-04-23T04:20:10;99925.91;;;5.27;100.00
67052;BME280;53957;47.222;18.670;2023-04-23T04:23:14;99929.84;;;5.62;100.00
67052;BME280;53957;47.222;18.670;2023-04-23T04:26:17;99937.81;;;5.67;100.00
67052;BME280;53957;47.222;18.670;2023-04-23T04:29:20;99937.38;;;5.80;100.00
67052;BME280;53957;47.222;18.670;2023-04-23T04:32:25;99952.34;;;6.12;100.00
67052;BME280;53957;47.222;18.670;2023-04-23T04:35:29;99946.63;;;6.47;100.00
67052;BME280;53957;47.222;18.670;2023-04-23T04:38:32;99952.50;;;6.69;100.00
67052;BME280;53957;47.222;18.670;2023-04-23T04:41:35;99955.97;;;7.06;100.00
67052;BME280;53957;47.222;18.670;2023-04-23T04:44:38;99950.66;;;7.47;100.00
67052;BME280;53957;47.222;18.670;2023-04-23T04:47:42;99956.50;;;7.29;100.00
67052;BME280;53957;47.222;18.670;2023-04-23T04:50:52;99953.06;;;6.87;100.00
67052;BME280;53957;47.222;18.670;2023-04-23T04:53:55;99958.09;;;7.14;100.00
67052;BME280;53957;47.222;18.670;2023-04-23T04:56:58;99956.66;;;8.94;100.00
67052;BME280;53957;47.222;18.670;2023-04-23T05:03:21;99968.66;;;10.23;100.00
67052;BME280;53957;47.222;18.670;2023-04-23T05:06:24;99960.00;;;9.64;100.00
67052;BME280;53957;47.222;18.670;2023-04-23T05:09:27;99956.63;;;9.82;100.00
67052;BME280;53957;47.222;18.670;2023-04-23T05:12:30;99979.16;;;10.39;100.00
67052;BME280;53957;47.222;18.670;2023-04-23T05:15:34;99978.44;;;11.23;91.59
67052;BME280;53957;47.222;18.670;2023-04-23T05:18:37;99975.22;;;11.07;94.10
67052;BME280;53957;47.222;18.670;2023-04-23T05:21:40;99974.16;;;11.08;94.27
67052;BME280;53957;47.222;18.670;2023-04-23T05:24:44;99969.44;;;11.52;94.53
67052;BME280;53957;47.222;18.670;2023-04-23T05:27:48;99979.34;;;11.80;93.36
67052;BME280;53957;47.222;18.670;2023-04-23T05:30:51;99974.91;;;12.03;93.56
67052;BME280;53957;47.222;18.670;2023-04-23T05:33:53;99972.72;;;12.19;93.62
67052;BME280;53957;47.222;18.670;2023-04-23T05:36:56;99978.84;;;11.77;89.67
67052;BME280;53957;47.222;18.670;2023-04-23T05:40:00;99977.41;;;11.99;90.76
67052;BME280;53957;47.222;18.670;2023-04-23T05:43:04;99984.38;;;12.37;88.33
67052;BME280;53957;47.222;18.670;2023-04-23T05:46:07;99974.12;;;12.89;83.71
67052;BME280;53957;47.222;18.670;2023-04-23T05:49:10;99974.12;;;12.89;83.17
67052;BME280;53957;47.222;18.670;2023-04-23T05:52:13;99977.50;;;13.27;85.07
67052;BME280;53957;47.222;18.670;2023-04-23T05:55:16;99983.00;;;13.44;82.33
67052;BME280;53957;47.222;18.670;2023-04-23T05:58:19;99979.13;;;13.99;83.44
67052;BME280;53957;47.222;18.670;2023-04-23T06:01:23;99978.63;;;14.99;78.27
67052;BME280;53957;47.222;18.670;2023-04-23T06:04:26;99979.75;;;15.45;73.78
67052;BME280;53957;47.222;18.670;2023-04-23T06:07:30;99980.63;;;15.20;74.84
67052;BME280;53957;47.222;18.670;2023-04-23T06:10:33;99978.75;;;14.59;79.25
67052;BME280;53957;47.222;18.670;2023-04-23T06:13:36;99988.06;;;15.70;71.67
67052;BME280;53957;47.222;18.670;2023-04-23T06:16:45;99990.69;;;16.48;68.18
67052;BME280;53957;47.222;18.670;2023-04-23T06:19:47;99988.13;;;17.39;62.74
67052;BME280;53957;47.222;18.670;2023-04-23T06:22:50;99986.94;;;17.16;65.93
67052;BME280;53957;47.222;18.670;2023-04-23T06:25:53;99985.28;;;18.07;58.35
67052;BME280;53957;47.222;18.670;2023-04-23T06:28:56;99988.16;;;18.79;54.95
67052;BME280;53957;47.222;18.670;2023-04-23T06:32:02;99989.91;;;18.88;53.17
67052;BME280;53957;47.222;18.670;2023-04-23T06:35:06;99989.41;;;18.41;57.27
67052;BME280;53957;47.222;18.670;2023-04-23T06:38:10;99991.03;;;18.17;51.29
67052;BME280;53957;47.222;18.670;2023-04-23T06:41:14;100003.91;;;21.08;44.49
67052;BME280;53957;47.222;18.670;2023-04-23T06:44:17;99989.28;;;19.51;51.16
67052;BME280;53957;47.222;18.670;2023-04-23T06:47:21;99996.06;;;20.64;49.43
67052;BME280;53957;47.222;18.670;2023-04-23T06:50:43;99993.69;;;21.21;43.62
67052;BME280;53957;47.222;18.670;2023-04-23T06:54:07;99998.09;;;21.06;40.55
67052;BME280;53957;47.222;18.670;2023-04-23T06:57:09;99995.13;;;21.85;39.28
67052;BME280;53957;47.222;18.670;2023-04-23T07:00:13;99996.22;;;19.20;46.33
67052;BME280;53957;47.222;18.670;2023-04-23T07:03:16;99995.69;;;21.94;37.77
67052;BME280;53957;47.222;18.670;2023-04-23T07:06:19;99991.97;;;19.67;43.75
67052;BME280;53957;47.222;18.670;2023-04-23T07:09:22;99989.50;;;18.45;48.68
67052;BME280;53957;47.222;18.670;2023-04-23T07:12:26;99989.16;;;22.29;39.08
67052;BME280;53957;47.222;18.670;2023-04-23T07:15:28;99984.50;;;22.57;38.91
67052;BME280;53957;47.222;18.670;2023-04-23T07:18:32;99980.38;;;21.82;40.77
67052;BME280;53957;47.222;18.670;2023-04-23T07:21:34;99983.16;;;20.57;42.97
67052;BME280;53957;47.222;18.670;2023-04-23T07:24:37;99981.59;;;19.53;46.57
67052;BME280;53957;47.222;18.670;2023-04-23T07:27:43;99982.50;;;21.46;42.99
67052;BME280;53957;47.222;18.670;2023-04-23T07:30:46;99975.25;;;21.77;40.92
67052;BME280;53957;47.222;18.670;2023-04-23T07:33:50;99975.38;;;20.36;42.76
67052;BME280;53957;47.222;18.670;2023-04-23T07:36:54;99987.31;;;20.71;42.38
67052;BME280;53957;47.222;18.670;2023-04-23T07:39:58;99986.22;;;20.95;42.20
67052;BME280;53957;47.222;18.670;2023-04-23T07:43:03;99989.16;;;20.47;42.12
67052;BME280;53957;47.222;18.670;2023-04-23T07:46:06;99977.25;;;20.71;43.10
67052;BME280;53957;47.222;18.670;2023-04-23T07:49:10;99983.69;;;21.26;41.46
67052;BME280;53957;47.222;18.670;2023-04-23T07:52:17;99983.13;;;21.86;39.27
67052;BME280;53957;47.222;18.670;2023-04-23T07:55:20;99980.38;;;22.09;39.03
67052;BME280;53957;47.222;18.670;2023-04-23T07:58:24;99986.72;;;21.44;40.50
67052;BME280;53957;47.222;18.670;2023-04-23T08:01:29;99976.81;;;22.05;41.80
67052;BME280;53957;47.222;18.670;2023-04-23T08:04:36;99975.63;;;20.47;42.45
67052;BME280;53957;47.222;18.670;2023-04-23T08:07:39;99970.53;;;21.04;43.01
67052;BME280;53957;47.222;18.670;2023-04-23T08:10:46;99975.38;;;21.84;41.46
67052;BME280;53957;47.222;18.670;2023-04-23T08:14:09;99973.56;;;20.80;43.29
67052;BME280;53957;47.222;18.670;2023-04-23T08:17:12;99968.13;;;20.99;42.53
67052;BME280;53957;47.222;18.670;2023-04-23T08:20:16;99964.81;;;20.70;42.62
67052;BME280;53957;47.222;18.670;2023-04-23T08:23:19;99978.09;;;20.01;41.03
67052;BME280;53957;47.222;18.670;2023-04-23T08:26:26;99970.13;;;20.08;41.54
67052;BME280;53957;47.222;18.670;2023-04-23T08:29:29;99960.22;;;20.16;41.41
67052;BME280;53957;47.222;18.670;2023-04-23T08:32:52;99975.09;;;20.06;42.09
67052;BME280;53957;47.222;18.670;2023-04-23T08:35:55;99962.00;;;20.83;42.00
67052;BME280;53957;47.222;18.670;2023-04-23T08:38:58;99966.03;;;20.92;41.44
67052;BME280;53957;47.222;18.670;2023-04-23T08:42:36;99963.22;;;20.85;41.78
67052;BME280;53957;47.222;18.670;2023-04-23T08:45:39;99957.63;;;21.91;40.78
67052;BME280;53957;47.222;18.670;2023-04-23T08:49:01;99955.00;;;21.71;38.38
67052;BME280;53957;47.222;18.670;2023-04-23T08:52:15;99950.44;;;20.86;36.02
67052;BME280;53957;47.222;18.670;2023-04-23T08:55:21;99960.00;;;21.69;36.38
67052;BME280;53957;47.222;18.670;2023-04-23T08:58:43;99942.03;;;21.87;33.96
67052;BME280;53957;47.222;18.670;2023-04-23T09:02:08;99949.00;;;22.42;36.79
67052;BME280;53957;47.222;18.670;2023-04-23T09:05:13;99948.59;;;22.13;34.33
67052;BME280;53957;47.222;18.670;2023-04-23T09:08:37;99938.34;;;21.73;33.36
67052;BME280;53957;47.222;18.670;2023-04-23T09:11:40;99934.69;;;22.18;33.90
67052;BME280;53957;47.222;18.670;2023-04-23T09:14:44;99941.50;;;22.05;34.58
67052;BME280;53957;47.222;18.670;2023-04-23T09:17:47;99940.22;;;22.56;33.97
67052;BME280;53957;47.222;18.670;2023-04-23T09:20:52;99935.56;;;22.91;32.05
67052;BME280;53957;47.222;18.670;2023-04-23T09:23:55;99929.09;;;23.10;30.23
67052;BME280;53957;47.222;18.670;2023-04-23T09:26:58;99939.47;;;21.71;32.54
67052;BME280;53957;47.222;18.670;2023-04-23T09:30:04;99938.03;;;22.35;30.60
67052;BME280;53957;47.222;18.670;2023-04-23T09:33:15;99925.13;;;22.59;31.68
67052;BME280;53957;47.222;18.670;2023-04-23T09:36:22;99934.72;;;22.49;31.40
67052;BME280;53957;47.222;18.670;2023-04-23T09:39:25;99930.59;;;22.62;32.20
67052;BME280;53957;47.222;18.670;2023-04-23T09:42:29;99930.41;;;23.20;32.04
67052;BME280;53957;47.222;18.670;2023-04-23T09:45:32;99923.81;;;23.21;29.91
67052;BME280;53957;47.222;18.670;2023-04-23T09:48:40;99923.59;;;22.61;29.44
67052;BME280;53957;47.222;18.670;2023-04-23T09:51:48;99914.84;;;23.17;29.88
67052;BME280;53957;47.222;18.670;2023-04-23T09:54:51;99909.19;;;22.98;28.63
67052;BME280;53957;47.222;18.670;2023-04-23T09:57:54;99912.38;;;23.04;30.09
67052;BME280;53957;47.222;18.670;2023-04-23T10:01:05;99903.34;;;22.93;30.65
67052;BME280;53957;47.222;18.670;2023-04-23T10:04:11;99908.63;;;23.20;28.75
67052;BME280;53957;47.222;18.670;2023-04-23T10:07:15;99909.25;;;23.06;28.12
67052;BME280;53957;47.222;18.670;2023-04-23T10:10:23;99900.97;;;22.91;26.96
67052;BME280;53957;47.222;18.670;2023-04-23T10:13:26;99896.03;;;22.29;29.05
67052;BME280;53957;47.222;18.670;2023-04-23T10:16:31;99902.56;;;22.55;28.88
67052;BME280;53957;47.222;18.670;2023-04-23T10:19:51;99899.91;;;23.03;27.91
67052;BME280;53957;47.222;18.670;2023-04-23T10:22:54;99886.13;;;22.13;26.35
67052;BME280;53957;47.222;18.670;2023-04-23T10:26:00;99889.28;;;22.46;27.71
67052;BME280;53957;47.222;18.670;2023-04-23T10:29:08;99880.84;;;21.94;28.05
67052;BME280;53957;47.222;18.670;2023-04-23T10:32:16;99883.16;;;22.56;29.07
67052;BME280;53957;47.222;18.670;2023-04-23T10:35:22;99877.38;;;22.27;28.95
67052;BME280;53957;47.222;18.670;2023-04-23T10:38:25;99879.72;;;22.29;28.57
67052;BME280;53957;47.222;18.670;2023-04-23T10:41:41;99871.06;;;22.19;28.44
67052;BME280;53957;47.222;18.670;2023-04-23T11:32:45;99855.00;;;21.77;28.19
67052;BME280;53957;47.222;18.670;2023-04-23T11:35:52;99851.31;;;21.88;26.89
67052;BME280;53957;47.222;18.670;2023-04-23T11:38:55;99845.78;;;21.54;27.08
67052;BME280;53957;47.222;18.670;2023-04-23T11:41:58;99839.09;;;21.75;26.04
67052;BME280;53957;47.222;18.670;2023-04-23T11:45:05;99843.94;;;21.59;26.48
67052;BME280;53957;47.222;18.670;2023-04-23T11:48:08;99841.19;;;21.85;29.63
67052;BME280;53957;47.222;18.670;2023-04-23T11:51:11;99841.47;;;22.41;27.81
67052;BME280;53957;47.222;18.670;2023-04-23T11:54:14;99833.50;;;21.61;26.86
67052;BME280;53957;47.222;18.670;2023-04-23T11:57:17;99840.25;;;21.47;27.25
67052;BME280;53957;47.222;18.670;2023-04-23T12:00:23;99834.50;;;21.26;26.69
67052;BME280;53957;47.222;18.670;2023-04-23T12:03:26;99828.06;;;21.61;28.21
67052;BME280;53957;47.222;18.670;2023-04-23T12:06:38;99821.56;;;21.69;26.99
67052;BME280;53957;47.222;18.670;2023-04-23T12:09:44;99816.91;;;22.00;29.27
67052;BME280;53957;47.222;18.670;2023-04-23T12:12:51;99818.25;;;22.47;27.44
67052;BME280;53957;47.222;18.670;2023-04-23T12:15:59;99815.00;;;22.00;25.89
67052;BME280;53957;47.222;18.670;2023-04-23T12:22:15;99811.00;;;21.91;28.04
67052;BME280;53957;47.222;18.670;2023-04-23T12:25:21;99813.03;;;21.67;27.91
67052;BME280;53957;47.222;18.670;2023-04-23T12:28:26;99808.84;;;21.46;29.61
67052;BME280;53957;47.222;18.670;2023-04-23T12:31:29;99806.03;;;21.66;28.57
67052;BME280;53957;47.222;18.670;2023-04-23T12:34:34;99800.81;;;21.53;29.31
67052;BME280;53957;47.222;18.670;2023-04-23T12:37:37;99795.09;;;21.59;28.17
67052;BME280;53957;47.222;18.670;2023-04-23T12:40:40;99788.34;;;21.22;28.69
67052;BME280;53957;47.222;18.670;2023-04-23T12:43:43;99766.81;;;21.60;28.52
67052;BME280;53957;47.222;18.670;2023-04-23T12:47:07;99786.00;;;21.78;28.11
67052;BME280;53957;47.222;18.670;2023-04-23T12:53:47;99779.44;;;21.52;28.19
67052;BME280;53957;47.222;18.670;2023-04-23T12:56:56;99782.94;;;21.79;29.42
67052;BME280;53957;47.222;18.670;2023-04-23T12:59:59;99779.81;;;21.50;28.30
67052;BME280;53957;47.222;18.670;2023-04-23T13:03:03;99780.00;;;21.92;29.52
67052;BME280;53957;47.222;18.670;2023-04-23T13:06:07;99766.63;;;22.13;29.83
67052;BME280;53957;47.222;18.670;2023-04-23T13:09:10;99769.62;;;22.39;28.05
67052;BME280;53957;47.222;18.670;2023-04-23T13:12:12;99765.28;;;22.34;29.28
67052;BME280;53957;47.222;18.670;2023-04-23T13:15:18;99758.56;;;22.20;27.37
67052;BME280;53957;47.222;18.670;2023-04-23T13:18:41;99752.44;;;22.31;27.32
67052;BME280;53957;47.222;18.670;2023-04-23T13:22:05;99751.00;;;21.69;27.84
67052;BME280;53957;47.222;18.670;2023-04-23T13:25:09;99749.34;;;21.57;27.86
67052;BME280;53957;47.222;18.670;2023-04-23T13:28:12;99745.59;;;21.69;28.15
67052;BME280;53957;47.222;18.670;2023-04-23T13:31:15;99749.50;;;21.71;27.45
67052;BME280;53957;47.222;18.670;2023-04-23T13:34:18;99738.69;;;21.45;28.11
67052;BME280;53957;47.222;18.670;2023-04-23T13:37:21;99727.56;;;21.87;28.59
67052;BME280;53957;47.222;18.670;2023-04-23T13:40:26;99727.91;;;21.82;28.06
67052;BME280;53957;47.222;18.670;2023-04-23T13:43:28;99721.28;;;22.17;28.43
67052;BME280;53957;47.222;18.670;2023-04-23T13:46:32;99717.41;;;22.18;28.00
67052;BME280;53957;47.222;18.670;2023-04-23T13:49:35;99715.84;;;21.80;27.69
67052;BME280;53957;47.222;18.670;2023-04-23T13:52:38;99708.94;;;21.86;27.98
67052;BME280;53957;47.222;18.670;2023-04-23T13:55:46;99709.72;;;22.24;27.12
67052;BME280;53957;47.222;18.670;2023-04-23T13:58:49;99699.13;;;21.74;27.16
67052;BME280;53957;47.222;18.670;2023-04-23T14:02:14;99706.06;;;21.71;27.52
67052;BME280;53957;47.222;18.670;2023-04-23T14:05:37;99694.34;;;21.98;29.37
67052;BME280;53957;47.222;18.670;2023-04-23T14:09:00;99694.19;;;22.25;26.90
67052;BME280;53957;47.222;18.670;2023-04-23T14:12:03;99689.94;;;21.86;27.63
67052;BME280;53957;47.222;18.670;2023-04-23T14:15:26;99682.94;;;21.51;28.55
67052;BME280;53957;47.222;18.670;2023-04-23T14:18:37;99690.97;;;21.74;28.13
67052;BME280;53957;47.222;18.670;2023-04-23T14:21:40;99681.81;;;21.55;28.45
67052;BME280;53957;47.222;18.670;2023-04-23T14:24:45;99673.97;;;21.77;28.84
67052;BME280;53957;47.222;18.670;2023-04-23T14:28:28;99682.69;;;21.60;27.94
67052;BME280;53957;47.222;18.670;2023-04-23T14:31:36;99669.22;;;21.36;29.39
67052;BME280;53957;47.222;18.670;2023-04-23T14:34:39;99665.66;;;22.00;28.86
67052;BME280;53957;47.222;18.670;2023-04-23T14:37:42;99664.97;;;21.69;28.21
67052;BME280;53957;47.222;18.670;2023-04-23T14:40:46;99660.22;;;21.63;28.29
67052;BME280;53957;47.222;18.670;2023-04-23T14:43:49;99667.97;;;21.61;28.91
67052;BME280;53957;47.222;18.670;2023-04-23T14:46:52;99657.75;;;21.84;28.22
67052;BME280;53957;47.222;18.670;2023-04-23T14:49:55;99660.03;;;21.82;28.01
67052;BME280;53957;47.222;18.670;2023-04-23T14:52:59;99654.31;;;21.91;29.28
67052;BME280;53957;47.222;18.670;2023-04-23T14:56:02;99656.31;;;21.98;28.09
67052;BME280;53957;47.222;18.670;2023-04-23T14:59:04;99652.13;;;21.32;29.36
67052;BME280;53957;47.222;18.670;2023-04-23T15:02:08;99647.50;;;21.36;28.46
67052;BME280;53957;47.222;18.670;2023-04-23T15:05:13;99653.06;;;21.47;28.57
67052;BME280;53957;47.222;18.670;2023-04-23T15:08:19;99655.28;;;21.72;29.32
67052;BME280;53957;47.222;18.670;2023-04-23T15:11:22;99654.03;;;21.62;29.12
67052;BME280;53957;47.222;18.670;2023-04-23T15:14:30;99651.16;;;21.51;29.73
67052;BME280;53957;47.222;18.670;2023-04-23T15:17:33;99651.47;;;21.43;29.01
67052;BME280;53957;47.222;18.670;2023-04-23T15:20:36;99642.75;;;21.26;29.03
67052;BME280;53957;47.222;18.670;2023-04-23T15:23:39;99647.47;;;21.33;29.55
67052;BME280;53957;47.222;18.670;2023-04-23T15:26:44;99640.00;;;21.22;28.47
67052;BME280;53957;47.222;18.670;2023-04-23T15:29:47;99648.28;;;21.37;28.14
67052;BME280;53957;47.222;18.670;2023-04-23T15:32:51;99633.59;;;21.07;28.24
67052;BME280;53957;47.222;18.670;2023-04-23T15:35:56;99630.63;;;21.16;29.46
67052;BME280;53957;47.222;18.670;2023-04-23T15:39:01;99636.16;;;21.27;29.79
67052;BME280;53957;47.222;18.670;2023-04-23T15:42:04;99628.72;;;21.20;29.93
67052;BME280;53957;47.222;18.670;2023-04-23T15:45:10;99620.81;;;21.08;30.94
67052;BME280;53957;47.222;18.670;2023-04-23T15:48:13;99616.41;;;20.96;30.03
67052;BME280;53957;47.222;18.670;2023-04-23T15:51:17;99621.22;;;20.80;30.36
67052;BME280;53957;47.222;18.670;2023-04-23T15:54:20;99623.53;;;20.78;31.09
67052;BME280;53957;47.222;18.670;2023-04-23T15:57:23;99616.25;;;20.82;29.92
67052;BME280;53957;47.222;18.670;2023-04-23T16:00:29;99616.97;;;20.79;31.35
67052;BME280;53957;47.222;18.670;2023-04-23T16:03:33;99617.78;;;20.56;31.87
67052;BME280;53957;47.222;18.670;2023-04-23T16:06:36;99607.00;;;20.59;32.34
67052;BME280;53957;47.222;18.670;2023-04-23T16:09:39;99612.31;;;20.52;33.49
67052;BME280;53957;47.222;18.670;2023-04-23T16:12:43;99608.12;;;20.32;33.51
67052;BME280;53957;47.222;18.670;2023-04-23T16:15:47;99602.59;;;20.24;33.58
67052;BME280;53957;47.222;18.670;2023-04-23T16:18:50;99602.53;;;20.21;33.67
67052;BME280;53957;47.222;18.670;2023-04-23T16:21:53;99597.69;;;20.07;34.23
67052;BME280;53957;47.222;18.670;2023-04-23T16:24:56;99604.00;;;19.91;34.98
67052;BME280;53957;47.222;18.670;2023-04-23T16:28:00;99599.47;;;19.76;35.53
67052;BME280;53957;47.222;18.670;2023-04-23T16:31:07;99593.12;;;19.88;35.82
67052;BME280;53957;47.222;18.670;2023-04-23T16:34:10;99597.25;;;19.82;36.26
67052;BME280;53957;47.222;18.670;2023-04-23T16:37:13;99594.25;;;19.44;37.29
67052;BME280;53957;47.222;18.670;2023-04-23T16:40:18;99591.63;;;19.28;38.51
67052;BME280;53957;47.222;18.670;2023-04-23T16:43:21;99583.75;;;19.19;39.09
67052;BME280;53957;47.222;18.670;2023-04-23T16:46:25;99582.16;;;19.18;39.83
67052;BME280;53957;47.222;18.670;2023-04-23T16:49:31;99575.78;;;19.07;40.94
67052;BME280;53957;47.222;18.670;2023-04-23T16:52:34;99580.69;;;18.85;41.94
67052;BME280;53957;47.222;18.670;2023-04-23T16:55:37;99577.72;;;18.71;42.00
67052;BME280;53957;47.222;18.670;2023-04-23T16:58:43;99570.94;;;18.96;40.37
67052;BME280;53957;47.222;18.670;2023-04-23T17:02:01;99575.84;;;18.75;40.61
67052;BME280;53957;47.222;18.670;2023-04-23T17:05:06;99571.47;;;18.50;40.99
67052;BME280;53957;47.222;18.670;2023-04-23T17:08:09;99570.53;;;18.43;40.70
67052;BME280;53957;47.222;18.670;2023-04-23T17:11:13;99570.06;;;18.21;41.21
67052;BME280;53957;47.222;18.670;2023-04-23T17:14:18;99564.81;;;17.96;42.13
67052;BME280;53957;47.222;18.670;2023-04-23T17:17:22;99566.34;;;17.81;43.57
67052;BME280;53957;47.222;18.670;2023-04-23T17:20:37;99569.03;;;17.65;43.82
67052;BME280;53957;47.222;18.670;2023-04-23T17:23:41;99570.25;;;17.52;44.66
67052;BME280;53957;47.222;18.670;2023-04-23T17:26:43;99570.00;;;17.57;44.03
67052;BME280;53957;47.222;18.670;2023-04-23T17:29:49;99570.84;;;17.45;44.75
67052;BME280;53957;47.222;18.670;2023-04-23T17:32:53;99560.47;;;17.31;46.35
67052;BME280;53957;47.222;18.670;2023-04-23T17:35:56;99564.41;;;16.93;47.67
67052;BME280;53957;47.222;18.670;2023-04-23T17:39:00;99559.06;;;16.68;48.74
67052;BME280;53957;47.222;18.670;2023-04-23T17:42:04;99564.47;;;16.56;49.56
67052;BME280;53957;47.222;18.670;2023-04-23T17:45:08;99564.59;;;16.47;49.90
67052;BME280;53957;47.222;18.670;2023-04-23T17:48:13;99568.97;;;16.27;51.03
67052;BME280;53957;47.222;18.670;2023-04-23T17:51:17;99566.47;;;15.97;53.04
67052;BME280;53957;47.222;18.670;2023-04-23T17:54:20;99568.28;;;15.93;53.77
67052;BME280;53957;47.222;18.670;2023-04-23T17:57:23;99571.88;;;15.97;53.52
67052;BME280;53957;47.222;18.670;2023-04-23T18:00:37;99563.84;;;15.76;54.18
67052;BME280;53957;47.222;18.670;2023-04-23T18:03:41;99572.47;;;15.69;54.33
67052;BME280;53957;47.222;18.670;2023-04-23T18:06:45;99570.25;;;15.38;55.65
67052;BME280;53957;47.222;18.670;2023-04-23T18:09:51;99572.09;;;15.25;56.90
67052;BME280;53957;47.222;18.670;2023-04-23T18:12:54;99577.53;;;14.95;58.64
67052;BME280;53957;47.222;18.670;2023-04-23T18:15:58;99579.31;;;14.70;61.08
67052;BME280;53957;47.222;18.670;2023-04-23T18:19:02;99586.12;;;14.67;61.54
67052;BME280;53957;47.222;18.670;2023-04-23T18:22:05;99584.34;;;14.71;61.44
67052;BME280;53957;47.222;18.670;2023-04-23T18:25:12;99577.19;;;14.15;64.41
67052;BME280;53957;47.222;18.670;2023-04-23T18:28:15;99580.13;;;14.31;62.37
67052;BME280;53957;47.222;18.670;2023-04-23T18:31:18;99581.00;;;14.06;63.18
67052;BME280;53957;47.222;18.670;2023-04-23T18:34:22;99583.31;;;14.55;58.73
67052;BME280;53957;47.222;18.670;2023-04-23T18:37:52;99581.19;;;14.39;59.84